createdAt,value
2017-04-01T00:00:41.219Z,998.59
2017-04-01T00:01:41.257Z,998.6
2017-04-01T00:02:41.295Z,998.59
2017-04-01T00:03:41.335Z,998.6
2017-04-01T00:04:41.373Z,998.6
2017-04-01T00:05:41.411Z,998.59
2017-04-01T00:06:41.450Z,998.59
2017-04-01T00:07:41.488Z,998.61
2017-04-01T00:08:41.528Z,998.58
2017-04-01T00:09:41.565Z,998.58
2017-04-01T00:10:41.604Z,998.55
2017-04-01T00:11:41.643Z,998.55
2017-04-01T00:12:41.680Z,998.54
2017-04-01T00:13:41.719Z,998.52
2017-04-01T00:14:41.762Z,998.54
2017-04-01T00:15:41.796Z,998.51
2017-04-01T00:16:41.834Z,998.55
2017-04-01T00:17:41.872Z,998.58
2017-04-01T00:18:41.911Z,998.54
2017-04-01T00:19:41.954Z,998.52
2017-04-01T00:20:41.988Z,998.58
2017-04-01T00:21:42.027Z,998.54
2017-04-01T00:22:42.065Z,998.53
2017-04-01T00:23:42.102Z,998.55
2017-04-01T00:24:42.143Z,998.5
2017-04-01T00:25:42.182Z,998.47
2017-04-01T00:26:42.220Z,998.48
2017-04-01T00:27:42.256Z,998.47
2017-04-01T00:28:42.296Z,998.47
2017-04-01T00:29:42.335Z,998.45
2017-04-01T00:30:42.374Z,998.48
2017-04-01T00:31:42.411Z,998.47
2017-04-01T00:32:42.450Z,998.45
2017-04-01T00:33:42.490Z,998.48
2017-04-01T00:34:42.527Z,998.48
2017-04-01T00:35:42.565Z,998.49
2017-04-01T00:36:42.605Z,998.45
2017-04-01T00:37:42.642Z,998.45
2017-04-01T00:38:42.680Z,998.45
2017-04-01T00:39:42.719Z,998.45
2017-04-01T00:40:42.759Z,998.42
2017-04-01T00:41:42.797Z,998.44
2017-04-01T00:42:42.834Z,998.41
2017-04-01T00:43:42.873Z,998.37
2017-04-01T00:44:42.911Z,998.38
2017-04-01T00:45:42.949Z,998.39
2017-04-01T00:46:42.987Z,998.39
2017-04-01T00:47:43.026Z,998.37
2017-04-01T00:48:43.065Z,998.37
2017-04-01T00:49:43.102Z,998.4
2017-04-01T00:50:43.140Z,998.39
2017-04-01T00:51:43.178Z,998.4
2017-04-01T00:52:43.217Z,998.38
2017-04-01T00:53:43.256Z,998.37
2017-04-01T00:54:43.293Z,998.38
2017-04-01T00:55:43.336Z,998.47
2017-04-01T00:56:43.370Z,998.48
2017-04-01T00:57:43.438Z,998.56
2017-04-01T00:58:43.447Z,998.61
2017-04-01T00:59:43.485Z,998.63
2017-04-01T01:00:43.523Z,998.59
2017-04-01T01:01:43.561Z,998.57
2017-04-01T01:02:43.598Z,998.55
2017-04-01T01:03:43.636Z,998.52
2017-04-01T01:04:43.675Z,998.54
2017-04-01T01:05:43.713Z,998.6
2017-04-01T01:06:43.753Z,998.64
2017-04-01T01:07:43.789Z,998.65
2017-04-01T01:08:43.828Z,998.6
2017-04-01T01:09:43.867Z,998.64
2017-04-01T01:10:43.905Z,998.61
2017-04-01T01:11:43.942Z,998.59
2017-04-01T01:12:43.980Z,998.57
2017-04-01T01:13:44.019Z,998.56
2017-04-01T01:14:44.056Z,998.59
2017-04-01T01:15:44.093Z,998.6
2017-04-01T01:16:44.134Z,998.63
2017-04-01T01:17:44.170Z,998.63
2017-04-01T01:18:44.208Z,998.56
2017-04-01T01:19:44.246Z,998.52
2017-04-01T01:20:44.283Z,998.54
2017-04-01T01:21:44.323Z,998.54
2017-04-01T01:22:44.361Z,998.53
2017-04-01T01:23:44.399Z,998.5
2017-04-01T01:24:44.437Z,998.52
2017-04-01T01:25:44.475Z,998.54
2017-04-01T01:26:44.512Z,998.53
2017-04-01T01:27:44.550Z,998.5
2017-04-01T01:28:44.588Z,998.43
2017-04-01T01:29:44.626Z,998.45
2017-04-01T01:30:44.665Z,998.44
2017-04-01T01:31:44.703Z,998.42
2017-04-01T01:32:44.742Z,998.39
2017-04-01T01:33:44.778Z,998.38
2017-04-01T01:34:44.818Z,998.42
2017-04-01T01:35:44.855Z,998.38
2017-04-01T01:36:44.894Z,998.34
2017-04-01T01:37:44.932Z,998.38
2017-04-01T01:38:44.969Z,998.39
2017-04-01T01:39:45.007Z,998.43
2017-04-01T01:40:45.045Z,998.44
2017-04-01T01:41:45.083Z,998.43
2017-04-01T01:42:45.121Z,998.41
2017-04-01T01:43:45.160Z,998.43
2017-04-01T01:44:45.198Z,998.4
2017-04-01T01:45:45.235Z,998.37
2017-04-01T01:46:45.274Z,998.31
2017-04-01T01:47:45.310Z,998.33
2017-04-01T01:48:45.349Z,998.31
2017-04-01T01:49:45.389Z,998.3
2017-04-01T01:50:45.426Z,998.31
2017-04-01T01:51:45.463Z,998.33
2017-04-01T01:52:45.502Z,998.39
2017-04-01T01:53:45.540Z,998.34
2017-04-01T01:54:45.577Z,998.38
2017-04-01T01:55:45.619Z,998.4
2017-04-01T01:56:45.655Z,998.4
2017-04-01T01:57:45.691Z,998.37
2017-04-01T01:58:45.728Z,998.31
2017-04-01T01:59:45.768Z,998.33
2017-04-01T02:00:45.805Z,998.37
2017-04-01T02:01:45.843Z,998.39
2017-04-01T02:02:45.883Z,998.39
2017-04-01T02:03:45.919Z,998.34
2017-04-01T02:04:45.959Z,998.34
2017-04-01T02:05:45.996Z,998.31
2017-04-01T02:06:46.033Z,998.32
2017-04-01T02:07:46.072Z,998.32
2017-04-01T02:08:46.110Z,998.33
2017-04-01T02:09:46.147Z,998.39
2017-04-01T02:10:46.184Z,998.38
2017-04-01T02:11:46.223Z,998.35
2017-04-01T02:12:46.260Z,998.33
2017-04-01T02:13:46.299Z,998.36
2017-04-01T02:14:46.338Z,998.37
2017-04-01T02:15:46.374Z,998.34
2017-04-01T02:16:46.413Z,998.33
2017-04-01T02:17:46.450Z,998.31
2017-04-01T02:18:46.488Z,998.32
2017-04-01T02:19:46.525Z,998.31
2017-04-01T02:20:46.562Z,998.27
2017-04-01T02:21:46.601Z,998.25
2017-04-01T02:22:46.639Z,998.24
2017-04-01T02:23:46.677Z,998.26
2017-04-01T02:24:46.714Z,998.22
2017-04-01T02:25:46.751Z,998.23
2017-04-01T02:26:46.789Z,998.25
2017-04-01T02:27:46.825Z,998.28
2017-04-01T02:28:46.864Z,998.26
2017-04-01T02:29:46.902Z,998.25
2017-04-01T02:30:46.940Z,998.2
2017-04-01T02:31:46.976Z,998.21
2017-04-01T02:32:47.016Z,998.19
2017-04-01T02:33:47.053Z,998.2
2017-04-01T02:34:47.091Z,998.22
2017-04-01T02:35:47.127Z,998.22
2017-04-01T02:36:47.167Z,998.2
2017-04-01T02:37:47.204Z,998.19
2017-04-01T02:38:47.241Z,998.17
2017-04-01T02:39:47.279Z,998.18
2017-04-01T02:40:47.317Z,998.22
2017-04-01T02:41:47.354Z,998.19
2017-04-01T02:42:47.391Z,998.13
2017-04-01T02:43:47.429Z,998.1
2017-04-01T02:44:47.471Z,998.11
2017-04-01T02:45:47.505Z,998.13
2017-04-01T02:46:47.543Z,998.13
2017-04-01T02:47:47.582Z,998.06
2017-04-01T02:48:47.618Z,998.06
2017-04-01T02:49:47.656Z,998.03
2017-04-01T02:50:47.693Z,998.08
2017-04-01T02:51:47.729Z,998.08
2017-04-01T02:52:47.769Z,998.05
2017-04-01T02:53:47.804Z,998.05
2017-04-01T02:54:47.843Z,998.02
2017-04-01T02:55:47.881Z,998.01
2017-04-01T02:56:47.918Z,998.05
2017-04-01T02:57:47.955Z,998.02
2017-04-01T02:58:47.992Z,998.01
2017-04-01T02:59:48.031Z,998.06
2017-04-01T03:00:48.068Z,998.03
2017-04-01T03:01:48.105Z,998.03
2017-04-01T03:02:48.142Z,998.04
2017-04-01T03:03:48.181Z,998.04
2017-04-01T03:04:48.218Z,998.02
2017-04-01T03:05:48.257Z,998
2017-04-01T03:06:48.293Z,998.02
2017-04-01T03:07:48.331Z,997.99
2017-04-01T03:08:48.369Z,997.97
2017-04-01T03:09:48.407Z,997.95
2017-04-01T03:10:48.444Z,997.93
2017-04-01T03:11:48.480Z,997.98
2017-04-01T03:12:48.518Z,998
2017-04-01T03:13:48.556Z,998.01
2017-04-01T03:14:48.594Z,997.94
2017-04-01T03:15:48.630Z,997.9
2017-04-01T03:16:48.669Z,997.95
2017-04-01T03:17:48.706Z,997.95
2017-04-01T03:18:48.744Z,997.88
2017-04-01T03:19:48.781Z,997.91
2017-04-01T03:20:48.819Z,997.92
2017-04-01T03:21:48.856Z,997.85
2017-04-01T03:22:48.892Z,997.9
2017-04-01T03:23:48.931Z,997.91
2017-04-01T03:24:48.969Z,997.88
2017-04-01T03:25:49.006Z,997.82
2017-04-01T03:26:49.043Z,997.85
2017-04-01T03:27:49.080Z,997.89
2017-04-01T03:28:49.119Z,997.89
2017-04-01T03:29:49.157Z,997.89
2017-04-01T03:30:49.192Z,997.87
2017-04-01T03:31:49.230Z,997.9
2017-04-01T03:32:49.267Z,997.85
2017-04-01T03:33:49.305Z,997.86
2017-04-01T03:34:49.343Z,997.94
2017-04-01T03:35:49.381Z,997.84
2017-04-01T03:36:49.418Z,997.87
2017-04-01T03:37:49.455Z,997.86
2017-04-01T03:38:49.492Z,997.87
2017-04-01T03:39:49.530Z,997.88
2017-04-01T03:40:49.569Z,997.89
2017-04-01T03:41:49.606Z,997.85
2017-04-01T03:42:49.643Z,997.85
2017-04-01T03:43:49.681Z,997.87
2017-04-01T03:44:49.718Z,997.86
2017-04-01T03:45:49.757Z,997.87
2017-04-01T03:46:49.793Z,997.9
2017-04-01T03:47:49.832Z,997.9
2017-04-01T03:48:49.868Z,997.87
2017-04-01T03:49:49.905Z,997.88
2017-04-01T03:50:49.944Z,997.83
2017-04-01T03:51:49.980Z,997.85
2017-04-01T03:52:50.018Z,997.85
2017-04-01T03:53:50.056Z,997.86
2017-04-01T03:54:50.093Z,997.84
2017-04-01T03:55:50.130Z,997.85
2017-04-01T03:56:50.168Z,997.85
2017-04-01T03:57:50.205Z,997.81
2017-04-01T03:58:50.244Z,997.83
2017-04-01T03:59:50.280Z,997.85
2017-04-01T04:00:50.317Z,997.84
2017-04-01T04:01:50.356Z,997.85
2017-04-01T04:02:50.392Z,997.83
2017-04-01T04:03:50.429Z,997.87
2017-04-01T04:04:50.471Z,997.83
2017-04-01T04:05:50.506Z,997.86
2017-04-01T04:06:50.542Z,997.88
2017-04-01T04:07:50.580Z,997.86
2017-04-01T04:08:50.617Z,997.84
2017-04-01T04:09:50.656Z,997.87
2017-04-01T04:10:50.695Z,997.85
2017-04-01T04:11:50.733Z,997.9
2017-04-01T04:12:50.767Z,997.91
2017-04-01T04:13:50.805Z,997.88
2017-04-01T04:14:50.841Z,997.89
2017-04-01T04:15:50.879Z,997.91
2017-04-01T04:16:50.918Z,997.91
2017-04-01T04:17:50.954Z,997.92
2017-04-01T04:18:50.991Z,997.92
2017-04-01T04:19:51.029Z,997.89
2017-04-01T04:20:51.068Z,997.89
2017-04-01T04:21:51.103Z,997.85
2017-04-01T04:22:51.141Z,997.88
2017-04-01T04:23:51.178Z,997.89
2017-04-01T04:24:51.217Z,997.9
2017-04-01T04:25:51.254Z,997.91
2017-04-01T04:26:51.295Z,997.91
2017-04-01T04:27:51.328Z,997.9
2017-04-01T04:28:51.365Z,997.88
2017-04-01T04:29:51.437Z,997.92
2017-04-01T04:30:51.441Z,997.91
2017-04-01T04:31:51.479Z,997.9
2017-04-01T04:32:51.516Z,997.94
2017-04-01T04:33:51.553Z,997.9
2017-04-01T04:34:51.594Z,997.94
2017-04-01T04:35:51.632Z,997.95
2017-04-01T04:36:51.664Z,997.91
2017-04-01T04:37:51.702Z,997.94
2017-04-01T04:38:51.740Z,997.95
2017-04-01T04:39:51.776Z,997.92
2017-04-01T04:40:51.815Z,997.96
2017-04-01T04:41:51.853Z,997.96
2017-04-01T04:42:51.890Z,997.98
2017-04-01T04:43:51.927Z,997.95
2017-04-01T04:44:51.964Z,997.97
2017-04-01T04:45:52.002Z,998
2017-04-01T04:46:52.038Z,997.96
2017-04-01T04:47:52.075Z,998
2017-04-01T04:48:52.114Z,997.97
2017-04-01T04:49:52.151Z,997.98
2017-04-01T04:50:52.187Z,997.96
2017-04-01T04:51:52.227Z,997.97
2017-04-01T04:52:52.263Z,997.97
2017-04-01T04:53:52.301Z,997.96
2017-04-01T04:54:52.338Z,997.96
2017-04-01T04:55:52.374Z,997.96
2017-04-01T04:56:52.412Z,998.01
2017-04-01T04:57:52.450Z,997.99
2017-04-01T04:58:52.490Z,998.03
2017-04-01T04:59:52.525Z,998.02
2017-04-01T05:00:52.562Z,998.03
2017-04-01T05:01:52.600Z,998.02
2017-04-01T05:02:52.636Z,998.02
2017-04-01T05:03:52.675Z,998.03
2017-04-01T05:04:52.712Z,998.01
2017-04-01T05:05:52.749Z,998.03
2017-04-01T05:06:52.788Z,998.05
2017-04-01T05:07:52.823Z,998.11
2017-04-01T05:08:52.861Z,998.06
2017-04-01T05:09:52.899Z,998.07
2017-04-01T05:10:52.936Z,998.09
2017-04-01T05:11:52.976Z,998.06
2017-04-01T05:12:53.012Z,998.06
2017-04-01T05:13:53.049Z,998.09
2017-04-01T05:14:53.087Z,998.09
2017-04-01T05:15:53.126Z,998.11
2017-04-01T05:16:53.164Z,998.1
2017-04-01T05:17:53.202Z,998.1
2017-04-01T05:18:53.239Z,998.14
2017-04-01T05:19:53.275Z,998.13
2017-04-01T05:20:53.314Z,998.14
2017-04-01T05:21:53.352Z,998.09
2017-04-01T05:22:53.390Z,998.11
2017-04-01T05:23:53.427Z,998.14
2017-04-01T05:24:53.465Z,998.15
2017-04-01T05:25:53.504Z,998.17
2017-04-01T05:26:53.540Z,998.2
2017-04-01T05:27:53.578Z,998.13
2017-04-01T05:28:53.617Z,998.2
2017-04-01T05:29:53.655Z,998.17
2017-04-01T05:30:53.693Z,998.12
2017-04-01T05:31:53.732Z,998.12
2017-04-01T05:32:53.770Z,998.14
2017-04-01T05:33:53.807Z,998.14
2017-04-01T05:34:53.845Z,998.14
2017-04-01T05:35:53.883Z,998.1
2017-04-01T05:36:53.922Z,998.17
2017-04-01T05:37:53.959Z,998.15
2017-04-01T05:38:53.997Z,998.14
2017-04-01T05:39:54.035Z,998.13
2017-04-01T05:40:54.075Z,998.08
2017-04-01T05:41:54.111Z,998.1
2017-04-01T05:42:54.150Z,998.12
2017-04-01T05:43:54.188Z,998.11
2017-04-01T05:44:54.227Z,998.12
2017-04-01T05:45:54.265Z,998.14
2017-04-01T05:46:54.302Z,998.11
2017-04-01T05:47:54.346Z,998.1
2017-04-01T05:48:54.380Z,998.13
2017-04-01T05:49:54.419Z,998.09
2017-04-01T05:50:54.456Z,998.09
2017-04-01T05:51:54.496Z,998.1
2017-04-01T05:52:54.533Z,998.1
2017-04-01T05:53:54.572Z,998.14
2017-04-01T05:54:54.610Z,998.18
2017-04-01T05:55:54.650Z,998.17
2017-04-01T05:56:54.689Z,998.16
2017-04-01T05:57:54.727Z,998.19
2017-04-01T05:58:54.778Z,998.24
2017-04-01T05:59:54.807Z,998.2
2017-04-01T06:00:54.846Z,998.16
2017-04-01T06:01:54.895Z,998.19
2017-04-01T06:02:54.929Z,998.2
2017-04-01T06:03:54.967Z,998.27
2017-04-01T06:04:55.009Z,998.24
2017-04-01T06:05:55.051Z,998.26
2017-04-01T06:06:55.102Z,998.25
2017-04-01T06:07:55.132Z,998.32
2017-04-01T06:08:55.175Z,998.26
2017-04-01T06:09:55.221Z,998.29
2017-04-01T06:10:55.260Z,998.28
2017-04-01T06:11:55.301Z,998.3
2017-04-01T06:12:55.345Z,998.26
2017-04-01T06:13:55.389Z,998.27
2017-04-01T06:14:55.432Z,998.29
2017-04-01T06:15:55.475Z,998.31
2017-04-01T06:16:55.518Z,998.26
2017-04-01T06:17:55.563Z,998.32
2017-04-01T06:18:55.608Z,998.23
2017-04-01T06:19:55.651Z,998.24
2017-04-01T06:20:55.699Z,998.25
2017-04-01T06:21:55.740Z,998.26
2017-04-01T06:22:55.785Z,998.27
2017-04-01T06:23:55.830Z,998.28
2017-04-01T06:24:55.875Z,998.27
2017-04-01T06:25:55.919Z,998.29
2017-04-01T06:26:55.965Z,998.27
2017-04-01T06:27:56.009Z,998.3
2017-04-01T06:28:56.060Z,998.3
2017-04-01T06:29:56.100Z,998.27
2017-04-01T06:30:56.146Z,998.36
2017-04-01T06:31:56.192Z,998.31
2017-04-01T06:32:56.237Z,998.31
2017-04-01T06:33:56.282Z,998.29
2017-04-01T06:34:56.349Z,998.29
2017-04-01T06:35:56.376Z,998.27
2017-04-01T06:36:56.421Z,998.33
2017-04-01T06:37:56.469Z,998.28
2017-04-01T06:38:56.515Z,998.27
2017-04-01T06:39:56.561Z,998.28
2017-04-01T06:40:56.607Z,998.23
2017-04-01T06:41:56.655Z,998.26
2017-04-01T06:42:56.702Z,998.24
2017-04-01T06:43:56.750Z,998.29
2017-04-01T06:44:56.797Z,998.27
2017-04-01T06:45:56.844Z,998.34
2017-04-01T06:46:56.893Z,998.24
2017-04-01T06:47:56.939Z,998.28
